createdAt,value
2018-05-14T00:02:05.360Z,20.70
2018-05-14T00:04:33.654Z,20.70
2018-05-14T00:07:01.969Z,20.70
2018-05-14T00:09:30.187Z,20.70
2018-05-14T00:11:58.435Z,20.70
2018-05-14T00:14:26.646Z,20.70
2018-05-14T00:16:54.908Z,20.70
2018-05-14T00:19:23.178Z,20.70
2018-05-14T00:21:51.394Z,20.70
2018-05-14T00:24:19.663Z,20.70
2018-05-14T00:26:47.908Z,20.60
2018-05-14T00:29:16.317Z,20.60
2018-05-14T00:31:44.722Z,20.60
2018-05-14T00:34:13.716Z,20.50
2018-05-14T00:36:42.747Z,20.50
2018-05-14T00:39:10.948Z,20.50
2018-05-14T00:41:39.210Z,20.50
2018-05-14T00:44:07.486Z,20.40
2018-05-14T00:46:35.761Z,20.40
2018-05-14T00:49:04.003Z,20.40
2018-05-14T00:51:32.243Z,20.40
2018-05-14T00:54:00.477Z,20.40
2018-05-14T00:56:28.733Z,20.40
2018-05-14T00:58:56.953Z,20.40
2018-05-14T01:01:25.209Z,20.30
2018-05-14T01:03:53.456Z,20.30
2018-05-14T01:06:21.697Z,20.30
2018-05-14T01:08:49.936Z,20.30
2018-05-14T01:11:18.172Z,20.30
2018-05-14T01:13:47.213Z,20.30
2018-05-14T01:16:15.457Z,20.20
2018-05-14T01:18:43.709Z,20.20
2018-05-14T01:21:11.929Z,20.20
2018-05-14T01:23:40.182Z,20.10
2018-05-14T01:26:09.167Z,20.10
2018-05-14T01:28:38.261Z,20.10
2018-05-14T01:31:07.250Z,20.10
2018-05-14T01:33:36.256Z,20.10
2018-05-14T01:36:05.269Z,20.00
2018-05-14T01:38:33.539Z,20.00
2018-05-14T01:41:01.753Z,20.00
2018-05-14T01:43:29.997Z,20.00
2018-05-14T01:45:58.236Z,20.00
2018-05-14T01:48:26.477Z,20.00
2018-05-14T01:50:54.694Z,20.00
2018-05-14T01:53:22.935Z,19.90
2018-05-14T01:55:51.178Z,19.90
2018-05-14T01:58:19.396Z,19.90
2018-05-14T02:00:47.632Z,19.80
2018-05-14T02:03:15.862Z,19.80
2018-05-14T02:05:44.105Z,19.80
2018-05-14T02:08:13.084Z,19.80
2018-05-14T02:10:41.316Z,19.80
2018-05-14T02:13:09.525Z,19.80
2018-05-14T02:15:37.796Z,19.70
2018-05-14T02:18:06.016Z,19.70
2018-05-14T02:20:34.236Z,19.70
2018-05-14T02:23:02.516Z,19.70
2018-05-14T02:25:31.501Z,19.70
2018-05-14T02:28:00.511Z,19.70
2018-05-14T02:30:28.763Z,19.70
2018-05-14T02:32:57.093Z,19.70
2018-05-14T02:35:25.307Z,19.70
2018-05-14T02:37:53.592Z,19.70
2018-05-14T02:40:22.587Z,19.60
2018-05-14T02:42:51.232Z,19.60
2018-05-14T02:45:19.501Z,19.60
2018-05-14T02:47:48.516Z,19.60
2018-05-14T02:50:16.773Z,19.60
2018-05-14T02:52:45.065Z,19.60
2018-05-14T02:55:14.101Z,19.60
2018-05-14T02:57:43.085Z,19.50
2018-05-14T03:00:11.323Z,19.50
2018-05-14T03:02:39.542Z,19.50
2018-05-14T03:05:07.790Z,19.50
2018-05-14T03:07:36.048Z,19.50
2018-05-14T03:10:04.305Z,19.50
2018-05-14T03:12:32.538Z,19.50
2018-05-14T03:15:01.550Z,19.40
2018-05-14T03:17:30.600Z,19.40
2018-05-14T03:19:58.849Z,19.40
2018-05-14T03:22:27.091Z,19.40
2018-05-14T03:24:55.333Z,19.40
2018-05-14T03:27:23.589Z,19.30
2018-05-14T03:29:51.853Z,19.30
2018-05-14T03:32:20.068Z,19.30
2018-05-14T03:34:48.459Z,19.30
2018-05-14T03:37:16.706Z,19.20
2018-05-14T03:39:44.976Z,19.20
2018-05-14T03:42:13.198Z,19.30
2018-05-14T03:44:42.385Z,19.30
2018-05-14T03:47:10.611Z,19.20
2018-05-14T03:49:38.897Z,19.30
2018-05-14T03:52:07.170Z,19.20
2018-05-14T03:54:35.412Z,19.20
2018-05-14T03:57:03.665Z,19.20
2018-05-14T03:59:43.932Z,19.20
2018-05-14T04:02:23.938Z,19.20
2018-05-14T04:05:03.893Z,19.20
2018-05-14T04:07:32.145Z,19.10
2018-05-14T04:10:00.431Z,19.10
2018-05-14T04:12:30.271Z,19.10
2018-05-14T04:14:58.514Z,19.10
2018-05-14T04:17:26.802Z,19.10
2018-05-14T04:19:55.183Z,19.10
2018-05-14T04:22:23.421Z,19.10
2018-05-14T04:24:52.641Z,19.10
2018-05-14T04:27:20.981Z,19.10
2018-05-14T04:29:50.346Z,19.10
2018-05-14T04:32:19.345Z,19.20
2018-05-14T04:34:48.186Z,19.10
2018-05-14T04:37:16.509Z,19.10
2018-05-14T04:39:44.750Z,19.10
2018-05-14T04:42:12.989Z,19.10
2018-05-14T04:44:41.266Z,19.10
2018-05-14T04:47:09.511Z,19.10
2018-05-14T04:49:37.721Z,19.10
2018-05-14T04:52:06.636Z,19.20
2018-05-14T04:54:34.936Z,19.20
2018-05-14T04:57:03.228Z,19.20
2018-05-14T04:59:31.444Z,19.20
2018-05-14T05:01:59.705Z,19.20
2018-05-14T05:04:27.977Z,19.20
2018-05-14T05:06:56.301Z,19.20
2018-05-14T05:09:25.287Z,19.20
2018-05-14T05:11:53.513Z,19.20
2018-05-14T05:14:21.747Z,19.10
2018-05-14T05:16:50.036Z,19.10
2018-05-14T05:19:18.327Z,19.10
2018-05-14T05:21:46.596Z,19.20
2018-05-14T05:24:14.837Z,19.10
2018-05-14T05:26:43.096Z,19.20
2018-05-14T05:29:11.327Z,19.20
2018-05-14T05:31:39.553Z,19.20
2018-05-14T05:34:07.776Z,19.30
2018-05-14T05:36:36.021Z,19.30
2018-05-14T05:39:05.024Z,19.30
2018-05-14T05:41:33.286Z,19.30
2018-05-14T05:44:02.289Z,19.30
2018-05-14T05:46:31.268Z,19.40
2018-05-14T05:48:59.512Z,19.40
2018-05-14T05:51:28.505Z,19.50
2018-05-14T05:53:56.739Z,19.40
2018-05-14T05:56:24.952Z,19.50
2018-05-14T05:58:53.228Z,19.60
2018-05-14T06:01:21.486Z,19.50
2018-05-14T06:03:50.420Z,19.60
2018-05-14T06:06:18.704Z,19.60
2018-05-14T06:08:46.927Z,19.60
2018-05-14T06:11:15.196Z,19.70
2018-05-14T06:13:43.532Z,19.70
2018-05-14T06:16:11.754Z,19.70
2018-05-14T06:18:40.084Z,19.70
2018-05-14T06:21:08.332Z,19.80
2018-05-14T06:23:36.589Z,19.70
2018-05-14T06:26:04.886Z,19.80
2018-05-14T06:28:33.205Z,19.80
2018-05-14T06:31:01.421Z,19.90
2018-05-14T06:33:29.659Z,19.90
2018-05-14T06:35:57.904Z,19.90
2018-05-14T06:38:26.143Z,19.90
2018-05-14T06:40:54.397Z,20.00
2018-05-14T06:43:23.408Z,20.00
2018-05-14T06:45:51.704Z,20.00
2018-05-14T06:48:19.949Z,20.00
2018-05-14T06:50:48.398Z,20.00
2018-05-14T06:53:16.634Z,20.10
2018-05-14T06:55:44.907Z,20.10
2018-05-14T06:58:13.232Z,20.10
2018-05-14T07:00:41.457Z,20.20
2018-05-14T07:03:09.737Z,20.20
2018-05-14T07:05:38.698Z,20.20
2018-05-14T07:08:07.004Z,20.10
2018-05-14T07:10:35.243Z,20.20
2018-05-14T07:13:03.488Z,20.20
2018-05-14T07:15:31.805Z,20.30
2018-05-14T07:18:00.108Z,20.30
2018-05-14T07:20:28.476Z,20.30
2018-05-14T07:22:56.743Z,20.30
2018-05-14T07:25:25.101Z,20.30
2018-05-14T07:27:53.363Z,20.40
2018-05-14T07:30:22.035Z,20.40
2018-05-14T07:32:50.290Z,20.50
2018-05-14T07:35:18.656Z,20.60
2018-05-14T07:37:46.867Z,20.60
2018-05-14T07:40:15.111Z,20.60
2018-05-14T07:42:44.278Z,20.60
2018-05-14T07:45:12.696Z,20.60
2018-05-14T07:47:40.956Z,20.60
2018-05-14T07:50:09.197Z,20.70
2018-05-14T07:52:37.505Z,20.70
2018-05-14T07:55:06.519Z,20.70
2018-05-14T07:57:34.790Z,20.70
2018-05-14T08:00:03.035Z,20.80
2018-05-14T08:02:31.378Z,20.80
2018-05-14T08:04:59.611Z,20.80
2018-05-14T08:07:27.890Z,20.80
2018-05-14T08:09:56.121Z,20.80
2018-05-14T08:12:24.364Z,20.90
2018-05-14T08:14:52.640Z,20.90
2018-05-14T08:17:20.883Z,21.00
2018-05-14T08:19:49.147Z,21.10
2018-05-14T08:22:18.145Z,21.10
2018-05-14T08:24:46.435Z,21.00
2018-05-14T08:27:14.713Z,21.10
2018-05-14T08:29:42.944Z,21.10
2018-05-14T08:32:11.377Z,21.20
2018-05-14T08:34:39.620Z,21.30
2018-05-14T08:37:08.672Z,21.30
2018-05-14T08:39:37.017Z,21.30
2018-05-14T08:42:05.476Z,21.30
2018-05-14T08:44:33.709Z,21.30
2018-05-14T08:47:02.020Z,21.40
2018-05-14T08:52:04.834Z,21.40
2018-05-14T08:54:33.974Z,21.50
2018-05-14T08:57:02.200Z,21.40
2018-05-14T08:59:31.219Z,21.60
2018-05-14T09:01:59.453Z,21.50
2018-05-14T09:04:27.719Z,21.60
2018-05-14T09:06:55.992Z,21.60
2018-05-14T09:09:24.243Z,21.60
2018-05-14T09:11:52.488Z,21.60
2018-05-14T09:14:21.536Z,21.70
2018-05-14T09:16:49.787Z,21.60
2018-05-14T09:19:18.054Z,21.70
2018-05-14T09:21:47.032Z,21.70
2018-05-14T09:24:15.274Z,21.70
2018-05-14T09:26:43.500Z,21.80
2018-05-14T09:29:11.763Z,21.80
2018-05-14T09:31:40.025Z,21.80
2018-05-14T09:34:09.074Z,21.80
2018-05-14T09:36:37.345Z,21.80
2018-05-14T09:39:05.661Z,21.90
2018-05-14T09:41:33.896Z,21.90
2018-05-14T09:44:02.222Z,22.00
2018-05-14T09:46:31.246Z,22.00
2018-05-14T09:48:59.476Z,22.00
2018-05-14T09:51:27.774Z,22.10
2018-05-14T09:53:56.002Z,22.10
2018-05-14T09:56:24.331Z,22.10
2018-05-14T09:58:52.557Z,22.10
2018-05-14T10:01:20.783Z,22.20
2018-05-14T10:03:49.032Z,22.20
2018-05-14T10:06:17.403Z,22.20
2018-05-14T10:08:45.659Z,22.20
2018-05-14T10:11:13.927Z,22.20
2018-05-14T10:13:42.192Z,22.20
2018-05-14T10:16:10.429Z,22.20
2018-05-14T10:18:38.716Z,22.30
2018-05-14T10:21:06.893Z,22.30
2018-05-14T10:23:35.155Z,22.30
2018-05-14T10:26:03.358Z,22.40
2018-05-14T10:28:32.399Z,22.30
2018-05-14T10:31:00.704Z,22.30
2018-05-14T10:33:28.952Z,22.30
2018-05-14T10:35:57.192Z,22.30
2018-05-14T10:38:25.519Z,22.30
2018-05-14T10:40:53.747Z,22.30
2018-05-14T10:43:22.018Z,22.30
2018-05-14T10:45:51.065Z,22.40
2018-05-14T10:48:19.285Z,22.40
2018-05-14T10:50:47.547Z,22.40
2018-05-14T10:53:16.586Z,22.40
2018-05-14T10:55:44.839Z,22.40
2018-05-14T10:58:13.050Z,22.40
2018-05-14T11:00:41.268Z,22.40
2018-05-14T11:03:10.269Z,22.50
2018-05-14T11:05:38.720Z,22.40
2018-05-14T11:08:06.975Z,22.50
2018-05-14T11:10:35.242Z,22.50
2018-05-14T11:13:03.443Z,22.50
2018-05-14T11:15:31.668Z,22.60
2018-05-14T11:18:00.084Z,22.60
2018-05-14T11:20:28.331Z,22.60
2018-05-14T11:22:56.572Z,22.50
2018-05-14T11:25:24.793Z,22.60
2018-05-14T11:27:53.221Z,22.60
2018-05-14T11:30:21.363Z,22.60
2018-05-14T11:32:49.666Z,22.70
2018-05-14T11:35:18.040Z,22.70
2018-05-14T11:37:46.191Z,22.60
2018-05-14T11:40:14.578Z,22.60
2018-05-14T11:42:42.893Z,22.60
2018-05-14T11:45:12.044Z,22.70
2018-05-14T11:47:40.279Z,22.60
2018-05-14T11:50:09.352Z,22.70
2018-05-14T11:52:37.606Z,22.70
2018-05-14T11:55:05.877Z,22.80
2018-05-14T11:57:34.120Z,22.80
2018-05-14T12:00:02.361Z,22.80
2018-05-14T12:02:30.625Z,22.80
2018-05-14T12:04:58.923Z,22.80
2018-05-14T12:07:27.906Z,22.80
2018-05-14T12:09:57.035Z,22.70
2018-05-14T12:12:25.245Z,22.80
2018-05-14T12:14:53.677Z,22.80
2018-05-14T12:17:22.731Z,22.90
2018-05-14T12:19:51.106Z,22.80
2018-05-14T12:22:20.361Z,22.80
2018-05-14T12:24:48.635Z,22.70
2018-05-14T12:27:17.069Z,22.80
2018-05-14T12:29:45.464Z,22.80
2018-05-14T12:32:13.878Z,22.80
2018-05-14T12:34:42.889Z,22.90
2018-05-14T12:37:11.188Z,22.90
2018-05-14T12:39:39.422Z,22.90
2018-05-14T12:42:07.688Z,22.90
2018-05-14T12:44:36.767Z,22.90
2018-05-14T12:47:04.988Z,22.90
2018-05-14T12:49:33.309Z,23.00
2018-05-14T12:52:01.692Z,22.90
2018-05-14T12:54:30.642Z,23.00
2018-05-14T12:56:58.864Z,23.00
2018-05-14T12:59:27.134Z,23.00
2018-05-14T13:01:55.341Z,23.10
2018-05-14T13:04:23.676Z,23.00
2018-05-14T13:06:52.000Z,23.00
2018-05-14T13:09:20.202Z,23.10
2018-05-14T13:11:48.665Z,23.10
2018-05-14T13:14:16.924Z,23.10
2018-05-14T13:16:45.931Z,23.10
2018-05-14T13:19:14.272Z,23.10
2018-05-14T13:21:42.520Z,23.10
2018-05-14T13:24:10.814Z,23.10
2018-05-14T13:26:39.061Z,23.10
2018-05-14T13:29:07.314Z,23.20
2018-05-14T13:31:35.553Z,23.10
2018-05-14T13:34:03.791Z,23.20
2018-05-14T13:36:32.013Z,23.20
2018-05-14T13:39:00.277Z,23.20
2018-05-14T13:41:28.529Z,23.20
2018-05-14T13:43:56.799Z,23.20
2018-05-14T13:46:25.037Z,23.20
2018-05-14T13:48:54.111Z,23.30
2018-05-14T13:51:22.634Z,23.20
2018-05-14T13:53:50.939Z,23.30
2018-05-14T13:56:19.188Z,23.30
2018-05-14T13:58:47.492Z,23.30
2018-05-14T14:01:15.777Z,23.40
2018-05-14T14:03:44.026Z,23.40
2018-05-14T14:06:12.292Z,23.40
2018-05-14T14:08:40.529Z,23.40
2018-05-14T14:11:08.776Z,23.40
2018-05-14T14:13:37.032Z,23.40
2018-05-14T14:16:05.331Z,23.40
2018-05-14T14:18:33.571Z,23.40
2018-05-14T14:21:01.803Z,23.40
2018-05-14T14:23:30.162Z,23.40
2018-05-14T14:25:58.316Z,23.40
2018-05-14T14:28:26.661Z,23.40
2018-05-14T14:30:54.859Z,23.40
2018-05-14T14:33:23.118Z,23.50
2018-05-14T14:35:51.459Z,23.50
2018-05-14T14:38:19.644Z,23.40
2018-05-14T14:40:47.865Z,23.40
2018-05-14T14:43:16.112Z,23.40
2018-05-14T14:45:44.398Z,23.40
2018-05-14T14:48:13.408Z,23.40
2018-05-14T14:50:41.668Z,23.30
2018-05-14T14:53:09.876Z,23.40
2018-05-14T14:55:38.146Z,23.40
2018-05-14T14:58:06.366Z,23.40
2018-05-14T15:00:34.595Z,23.40
2018-05-14T15:03:02.841Z,23.40
2018-05-14T15:05:31.085Z,23.40
2018-05-14T15:07:59.316Z,23.40
2018-05-14T15:10:27.579Z,23.40
2018-05-14T15:12:55.791Z,23.50
2018-05-14T15:15:24.007Z,23.50
2018-05-14T15:17:52.242Z,23.50
2018-05-14T15:20:20.483Z,23.40
2018-05-14T15:22:49.491Z,23.40
2018-05-14T15:25:17.745Z,23.40
2018-05-14T15:27:46.788Z,23.40
2018-05-14T15:30:15.013Z,23.40
2018-05-14T15:32:44.098Z,23.40
2018-05-14T15:35:12.377Z,23.40
2018-05-14T15:37:40.658Z,23.40
2018-05-14T15:40:09.668Z,23.40
2018-05-14T15:42:37.972Z,23.40
2018-05-14T15:45:06.221Z,23.40
2018-05-14T15:47:34.453Z,23.50
2018-05-14T15:50:02.782Z,23.50
2018-05-14T15:52:30.964Z,23.50
2018-05-14T15:54:59.206Z,23.60
2018-05-14T15:57:27.428Z,23.50
2018-05-14T15:59:55.677Z,23.60
2018-05-14T16:02:23.915Z,23.50
2018-05-14T16:04:52.166Z,23.50
2018-05-14T16:07:20.431Z,23.60
2018-05-14T16:09:48.672Z,23.60
2018-05-14T16:12:16.938Z,23.60
2018-05-14T16:14:45.182Z,23.60
2018-05-14T16:17:13.440Z,23.60
2018-05-14T16:19:42.026Z,23.60
2018-05-14T16:22:10.997Z,23.60
2018-05-14T16:24:39.212Z,23.50
2018-05-14T16:27:07.447Z,23.70
2018-05-14T16:29:35.671Z,23.70
2018-05-14T16:32:03.934Z,23.60
2018-05-14T16:34:32.155Z,23.70
2018-05-14T16:37:01.172Z,23.80
2018-05-14T16:39:29.405Z,23.70
2018-05-14T16:41:57.683Z,23.80
2018-05-14T16:44:25.867Z,23.80
2018-05-14T16:46:54.107Z,23.80
2018-05-14T16:49:22.345Z,23.80
2018-05-14T16:51:51.340Z,23.80
2018-05-14T16:54:19.561Z,23.70
2018-05-14T16:56:48.585Z,23.80
2018-05-14T16:59:16.875Z,23.80
2018-05-14T17:01:45.864Z,23.90
2018-05-14T17:04:15.002Z,23.80
2018-05-14T17:06:43.101Z,23.80
2018-05-14T17:09:11.344Z,23.80
2018-05-14T17:11:40.482Z,23.80
2018-05-14T17:14:08.707Z,23.90
2018-05-14T17:16:37.085Z,24.00
2018-05-14T17:19:05.319Z,24.00
2018-05-14T17:21:33.540Z,23.90
2018-05-14T17:24:01.834Z,23.90
2018-05-14T17:26:30.874Z,23.80
2018-05-14T17:28:59.778Z,23.70
2018-05-14T17:31:28.795Z,23.70
2018-05-14T17:33:57.033Z,23.70
2018-05-14T17:36:25.280Z,23.80
2018-05-14T17:38:53.516Z,23.80
2018-05-14T17:41:21.769Z,23.80
2018-05-14T17:43:50.036Z,23.80
2018-05-14T17:46:18.277Z,23.70
2018-05-14T17:48:47.295Z,23.60
2018-05-14T17:51:15.543Z,23.60
2018-05-14T17:53:43.797Z,23.60
2018-05-14T17:56:12.057Z,23.50
2018-05-14T17:58:41.061Z,23.60
2018-05-14T18:01:09.361Z,23.60
2018-05-14T18:03:37.585Z,23.60
2018-05-14T18:06:05.820Z,23.50
2018-05-14T18:08:34.119Z,23.40
2018-05-14T18:11:02.359Z,23.40
2018-05-14T18:13:30.559Z,23.30
2018-05-14T18:15:58.833Z,23.30
2018-05-14T18:18:27.061Z,23.20
2018-05-14T18:21:00.181Z,23.20
2018-05-14T18:23:28.486Z,23.10
2018-05-14T18:29:09.240Z,23.00
2018-05-14T18:31:43.208Z,23.00
2018-05-14T18:34:11.476Z,23.00
2018-05-14T18:36:39.735Z,23.00
2018-05-14T18:39:07.996Z,22.90
2018-05-14T18:41:36.194Z,22.90
2018-05-14T18:44:10.059Z,22.80
2018-05-14T18:46:38.387Z,22.80
2018-05-14T18:49:06.603Z,22.80
2018-05-14T18:51:38.661Z,22.70
2018-05-14T18:54:07.606Z,22.70
2018-05-14T18:56:37.762Z,22.60
2018-05-14T18:59:07.091Z,22.60
2018-05-14T19:01:35.968Z,22.60
2018-05-14T19:04:04.199Z,22.60
2018-05-14T19:06:36.688Z,22.50
2018-05-14T19:09:05.708Z,22.50
2018-05-14T19:11:50.078Z,22.50
2018-05-14T19:14:18.354Z,22.40
2018-05-14T19:19:27.078Z,22.30
2018-05-14T19:21:57.892Z,22.20
2018-05-14T19:24:26.839Z,22.20
2018-05-14T19:26:55.961Z,22.20
2018-05-14T19:29:30.913Z,22.10
2018-05-14T19:31:59.069Z,22.10
2018-05-14T19:34:33.429Z,22.10
2018-05-14T19:37:01.676Z,22.00
2018-05-14T19:39:36.423Z,22.00
2018-05-14T19:42:04.614Z,21.90
2018-05-14T19:44:33.671Z,21.90
2018-05-14T19:47:03.406Z,21.80
2018-05-14T19:49:34.094Z,21.80
2018-05-14T19:52:02.383Z,21.80
2018-05-14T19:54:30.589Z,21.70
2018-05-14T19:56:58.854Z,21.70
2018-05-14T19:59:27.140Z,21.70
2018-05-14T20:01:55.415Z,21.70
2018-05-14T20:04:23.673Z,21.70
2018-05-14T20:06:52.005Z,21.60
2018-05-14T20:09:20.279Z,21.50
2018-05-14T20:11:48.533Z,21.50
2018-05-14T20:14:16.771Z,21.60
2018-05-14T20:16:45.007Z,21.50
2018-05-14T20:19:13.248Z,21.50
2018-05-14T20:21:41.477Z,21.50
2018-05-14T20:24:09.754Z,21.50
2018-05-14T20:26:38.059Z,21.50
2018-05-14T20:29:06.813Z,21.50
2018-05-14T20:31:35.956Z,21.40
2018-05-14T20:34:04.280Z,21.30
2018-05-14T20:36:32.548Z,21.30
2018-05-14T20:39:00.788Z,21.30
2018-05-14T20:41:29.248Z,21.30
2018-05-14T20:43:57.683Z,21.30
2018-05-14T20:46:25.880Z,21.30
2018-05-14T20:48:54.081Z,21.20
2018-05-14T20:51:22.427Z,21.20
2018-05-14T20:53:50.724Z,21.20
2018-05-14T20:56:19.071Z,21.20
2018-05-14T20:58:47.361Z,21.20
2018-05-14T21:01:15.581Z,21.10
2018-05-14T21:03:43.841Z,21.10
2018-05-14T21:06:12.064Z,21.10
2018-05-14T21:08:41.077Z,21.00
2018-05-14T21:11:09.437Z,21.00
2018-05-14T21:13:38.427Z,21.00
2018-05-14T21:16:06.735Z,21.00
2018-05-14T21:18:35.008Z,20.90
2018-05-14T21:21:03.239Z,20.90
2018-05-14T21:23:31.639Z,20.90
2018-05-14T21:25:59.871Z,20.80
2018-05-14T21:28:28.186Z,20.90
2018-05-14T21:30:57.198Z,20.80
2018-05-14T21:33:25.480Z,20.80
2018-05-14T21:35:53.803Z,20.80
2018-05-14T21:38:22.063Z,20.80
2018-05-14T21:40:50.348Z,20.80
2018-05-14T21:43:18.567Z,20.70
2018-05-14T21:45:47.668Z,20.60
2018-05-14T21:48:15.896Z,20.60
2018-05-14T21:50:44.167Z,20.50
2018-05-14T21:53:12.413Z,20.50
2018-05-14T21:55:40.665Z,20.50
2018-05-14T21:58:09.777Z,20.40
2018-05-14T22:00:38.037Z,20.40
2018-05-14T22:03:07.051Z,20.40
2018-05-14T22:05:41.871Z,20.40
2018-05-14T22:08:10.912Z,20.30
2018-05-14T22:10:39.183Z,20.20
2018-05-14T22:13:07.495Z,20.20
2018-05-14T22:15:35.827Z,20.20
2018-05-14T22:18:04.071Z,20.20
2018-05-14T22:20:32.341Z,20.10
2018-05-14T22:23:01.435Z,20.10
2018-05-14T22:25:30.630Z,20.10
2018-05-14T22:27:58.887Z,20.10
2018-05-14T22:30:27.174Z,20.00
2018-05-14T22:32:55.473Z,20.00
2018-05-14T22:35:23.696Z,19.90
2018-05-14T22:37:52.008Z,19.90
2018-05-14T22:40:20.300Z,19.90
2018-05-14T22:42:49.579Z,19.90
2018-05-14T22:45:17.862Z,19.80
2018-05-14T22:47:46.126Z,19.80
2018-05-14T22:50:14.413Z,19.80
2018-05-14T22:52:43.520Z,19.70
2018-05-14T22:55:12.564Z,19.60
2018-05-14T22:57:40.887Z,19.50
2018-05-14T23:00:09.113Z,19.20
2018-05-14T23:02:37.965Z,18.70
2018-05-14T23:05:06.967Z,18.40
2018-05-14T23:07:35.972Z,18.60
2018-05-14T23:10:04.252Z,18.50
2018-05-14T23:12:32.575Z,18.40
2018-05-14T23:15:01.579Z,18.90
2018-05-14T23:17:29.897Z,18.80
2018-05-14T23:19:58.199Z,19.00
2018-05-14T23:22:38.237Z,19.00
2018-05-14T23:25:07.264Z,18.80
2018-05-14T23:27:35.544Z,18.70
2018-05-14T23:30:03.766Z,18.80
2018-05-14T23:32:32.862Z,18.90
2018-05-14T23:35:01.178Z,18.90
2018-05-14T23:37:29.479Z,18.50
2018-05-14T23:39:57.691Z,18.50
2018-05-14T23:42:26.741Z,18.70
2018-05-14T23:44:55.026Z,18.70
2018-05-14T23:47:24.154Z,18.70
2018-05-14T23:49:53.152Z,18.70
2018-05-14T23:52:21.581Z,18.60
2018-05-14T23:54:49.844Z,18.70
2018-05-14T23:57:18.084Z,18.50
2018-05-14T23:59:46.439Z,18.60
